Charlestn, Mississippi
Current Conditions -  °F | °C
As of 11:35 PM on Sunday 19 Oct 2014 (Local Time) from KRNV Reporting Station
Haze Haze  
Wind Chill: 51°   Ceiling: Unl
Heat Index: 51°   Visibility: 2mi
Dew Point: 50°   Wind: 3mph
Humidity: 96%   Direction: 330°NNW
Pressure: 30.09"   Gusts: NA
Location:  33.8758°N, 90.2833°W
Report Text: KRNV 200435Z AUTO 33003KT 2SM BR CLR 11/10 A3009 RMK AO2 VIS 3/4V5 T01080102
Loading
Personal Weather Stations






























Interactive Weather Map
Tropical Storm Tracking
New forecast layout! Learn more

10-Day Weather Forecast

Advertisements
Track Severe Weather on mobile